sensor_id;sensor_type;location;lat;lon;timestamp;pressure;altitude;pressure_sealevel;temperature
19102;BMP280;9683;49.028;12.064;2023-03-23T00:01:46;96727.44;;;12.67
19102;BMP280;9683;49.028;12.064;2023-03-23T00:04:15;96731.13;;;12.61
19102;BMP280;9683;49.028;12.064;2023-03-23T00:06:41;96722.00;;;12.57
19102;BMP280;9683;49.028;12.064;2023-03-23T00:09:11;96716.66;;;12.57
19102;BMP280;9683;49.028;12.064;2023-03-23T00:11:37;96720.38;;;12.56
19102;BMP280;9683;49.028;12.064;2023-03-23T00:14:06;96725.72;;;12.56
19102;BMP280;9683;49.028;12.064;2023-03-23T00:16:39;96723.03;;;12.56
19102;BMP280;9683;49.028;12.064;2023-03-23T00:19:08;96717.94;;;12.55
19102;BMP280;9683;49.028;12.064;2023-03-23T00:21:39;96720.06;;;12.53
19102;BMP280;9683;49.028;12.064;2023-03-23T00:24:08;96723.78;;;12.52
19102;BMP280;9683;49.028;12.064;2023-03-23T00:26:37;96722.66;;;12.48
19102;BMP280;9683;49.028;12.064;2023-03-23T00:29:07;96718.97;;;12.49
19102;BMP280;9683;49.028;12.064;2023-03-23T00:31:35;96726.66;;;12.45
19102;BMP280;9683;49.028;12.064;2023-03-23T00:34:04;96709.03;;;12.44
19102;BMP280;9683;49.028;12.064;2023-03-23T00:36:31;96712.19;;;12.41
19102;BMP280;9683;49.028;12.064;2023-03-23T00:39:00;96719.63;;;12.39
19102;BMP280;9683;49.028;12.064;2023-03-23T00:41:27;96722.59;;;12.43
19102;BMP280;9683;49.028;12.064;2023-03-23T00:43:55;96710.06;;;12.43
19102;BMP280;9683;49.028;12.064;2023-03-23T00:46:24;96714.13;;;12.46
19102;BMP280;9683;49.028;12.064;2023-03-23T00:48:51;96703.13;;;12.42
19102;BMP280;9683;49.028;12.064;2023-03-23T00:51:18;96706.84;;;12.41
19102;BMP280;9683;49.028;12.064;2023-03-23T00:53:45;96699.63;;;12.41
19102;BMP280;9683;49.028;12.064;2023-03-23T00:56:12;96704.97;;;12.41
19102;BMP280;9683;49.028;12.064;2023-03-23T00:58:39;96703.38;;;12.40
19102;BMP280;9683;49.028;12.064;2023-03-23T01:01:06;96699.41;;;12.43
19102;BMP280;9683;49.028;12.064;2023-03-23T01:03:35;96704.22;;;12.46
19102;BMP280;9683;49.028;12.064;2023-03-23T01:06:07;96699.97;;;12.45
19102;BMP280;9683;49.028;12.064;2023-03-23T01:08:38;96697.53;;;12.44
19102;BMP280;9683;49.028;12.064;2023-03-23T01:11:11;96708.22;;;12.44
19102;BMP280;9683;49.028;12.064;2023-03-23T01:13:39;96697.53;;;12.44
19102;BMP280;9683;49.028;12.064;2023-03-23T01:16:06;96699.16;;;12.45
19102;BMP280;9683;49.028;12.064;2023-03-23T01:18:34;96694.63;;;12.45
19102;BMP280;9683;49.028;12.064;2023-03-23T01:21:04;96697.03;;;12.47
19102;BMP280;9683;49.028;12.064;2023-03-23T01:23:32;96682.88;;;12.46
19102;BMP280;9683;49.028;12.064;2023-03-23T01:26:02;96681.84;;;12.47
19102;BMP280;9683;49.028;12.064;2023-03-23T01:28:29;96690.09;;;12.46
19102;BMP280;9683;49.028;12.064;2023-03-23T01:30:59;96678.94;;;12.49
19102;BMP280;9683;49.028;12.064;2023-03-23T01:33:26;96682.41;;;12.49
19102;BMP280;9683;49.028;12.064;2023-03-23T01:35:54;96686.44;;;12.52
19102;BMP280;9683;49.028;12.064;2023-03-23T01:38:21;96685.06;;;12.49
19102;BMP280;9683;49.028;12.064;2023-03-23T01:40:47;96686.44;;;12.52
19102;BMP280;9683;49.028;12.064;2023-03-23T01:43:15;96677.38;;;12.53
19102;BMP280;9683;49.028;12.064;2023-03-23T01:45:42;96674.72;;;12.53
19102;BMP280;9683;49.028;12.064;2023-03-23T01:48:13;96676.06;;;12.55
19102;BMP280;9683;49.028;12.064;2023-03-23T01:50:49;96670.19;;;12.53
19102;BMP280;9683;49.028;12.064;2023-03-23T01:53:18;96683.53;;;12.53
19102;BMP280;9683;49.028;12.064;2023-03-23T01:55:47;96679.22;;;12.52
19102;BMP280;9683;49.028;12.064;2023-03-23T01:58:17;96662.16;;;12.53
19102;BMP280;9683;49.028;12.064;2023-03-23T02:00:45;96665.88;;;12.52
19102;BMP280;9683;49.028;12.064;2023-03-23T02:03:14;96669.38;;;12.53
19102;BMP280;9683;49.028;12.064;2023-03-23T02:05:42;96670.19;;;12.53
19102;BMP280;9683;49.028;12.064;2023-03-23T02:08:11;96673.66;;;12.54
19102;BMP280;9683;49.028;12.064;2023-03-23T02:10:40;96679.00;;;12.54
19102;BMP280;9683;49.028;12.064;2023-03-23T02:13:08;96682.44;;;12.54
19102;BMP280;9683;49.028;12.064;2023-03-23T02:15:46;96680.03;;;12.53
19102;BMP280;9683;49.028;12.064;2023-03-23T02:18:22;96681.91;;;12.52
19102;BMP280;9683;49.028;12.064;2023-03-23T02:24:32;96686.66;;;12.50
19102;BMP280;9683;49.028;12.064;2023-03-23T02:27:08;96682.88;;;12.46
19102;BMP280;9683;49.028;12.064;2023-03-23T02:29:56;96682.88;;;12.46
19102;BMP280;9683;49.028;12.064;2023-03-23T02:33:08;96681.28;;;12.45
19102;BMP280;9683;49.028;12.064;2023-03-23T02:35:37;96683.38;;;12.43
19102;BMP280;9683;49.028;12.064;2023-03-23T02:38:08;96677.25;;;12.43
19102;BMP280;9683;49.028;12.064;2023-03-23T02:40:38;96678.06;;;12.43
19102;BMP280;9683;49.028;12.064;2023-03-23T02:43:07;96679.66;;;12.44
19102;BMP280;9683;49.028;12.064;2023-03-23T02:45:36;96681.84;;;12.47
19102;BMP280;9683;49.028;12.064;2023-03-23T02:48:05;96678.94;;;12.49
19102;BMP280;9683;49.028;12.064;2023-03-23T02:50:35;96680.78;;;12.48
19102;BMP280;9683;49.028;12.064;2023-03-23T02:53:04;96680.53;;;12.50
19102;BMP280;9683;49.028;12.064;2023-03-23T02:55:32;96675.22;;;12.50
19102;BMP280;9683;49.028;12.064;2023-03-23T02:58:00;96686.94;;;12.49
19102;BMP280;9683;49.028;12.064;2023-03-23T03:00:27;96677.63;;;12.51
19102;BMP280;9683;49.028;12.064;2023-03-23T03:02:55;96679.22;;;12.52
19102;BMP280;9683;49.028;12.064;2023-03-23T03:05:32;96679.78;;;12.54
19102;BMP280;9683;49.028;12.064;2023-03-23T03:08:09;96681.41;;;12.55
19102;BMP280;9683;49.028;12.064;2023-03-23T03:10:45;96671.75;;;12.54
19102;BMP280;9683;49.028;12.064;2023-03-23T03:13:22;96675.25;;;12.55
19102;BMP280;9683;49.028;12.064;2023-03-23T03:15:56;96680.59;;;12.55
19102;BMP280;9683;49.028;12.064;2023-03-23T03:18:27;96680.84;;;12.53
19102;BMP280;9683;49.028;12.064;2023-03-23T03:20:59;96674.19;;;12.56
19102;BMP280;9683;49.028;12.064;2023-03-23T03:23:29;96685.91;;;12.55
19102;BMP280;9683;49.028;12.064;2023-03-23T03:25:58;96679.78;;;12.54
19102;BMP280;9683;49.028;12.064;2023-03-23T03:28:26;96682.44;;;12.54
19102;BMP280;9683;49.028;12.064;2023-03-23T03:30:55;96685.91;;;12.55
19102;BMP280;9683;49.028;12.064;2023-03-23T03:33:26;96680.84;;;12.53
19102;BMP280;9683;49.028;12.064;2023-03-23T03:35:57;96682.72;;;12.53
19102;BMP280;9683;49.028;12.064;2023-03-23T03:38:25;96683.53;;;12.53
19102;BMP280;9683;49.028;12.064;2023-03-23T03:40:54;96679.00;;;12.54
19102;BMP280;9683;49.028;12.064;2023-03-23T03:43:21;96683.25;;;12.55
19102;BMP280;9683;49.028;12.064;2023-03-23T03:45:48;96683.81;;;12.57
19102;BMP280;9683;49.028;12.064;2023-03-23T03:48:14;96689.16;;;12.57
19102;BMP280;9683;49.028;12.064;2023-03-23T03:50:41;96683.00;;;12.56
19102;BMP280;9683;49.028;12.064;2023-03-23T03:53:08;96680.09;;;12.58
19102;BMP280;9683;49.028;12.064;2023-03-23T03:55:34;96674.78;;;12.58
19102;BMP280;9683;49.028;12.064;2023-03-23T03:58:05;96674.50;;;12.59
19102;BMP280;9683;49.028;12.064;2023-03-23T04:00:33;96677.16;;;12.59
19102;BMP280;9683;49.028;12.064;2023-03-23T04:02:59;96671.84;;;12.59
19102;BMP280;9683;49.028;12.064;2023-03-23T04:05:26;96680.41;;;12.61
19102;BMP280;9683;49.028;12.064;2023-03-23T04:07:55;96684.69;;;12.62
19102;BMP280;9683;49.028;12.064;2023-03-23T04:10:27;96681.75;;;12.64
19102;BMP280;9683;49.028;12.064;2023-03-23T04:12:54;96678.28;;;12.63
19102;BMP280;9683;49.028;12.064;2023-03-23T04:15:22;96681.53;;;12.65
19102;BMP280;9683;49.028;12.064;2023-03-23T04:17:49;96687.91;;;12.64
19102;BMP280;9683;49.028;12.064;2023-03-23T04:20:16;96687.91;;;12.64
19102;BMP280;9683;49.028;12.064;2023-03-23T04:22:43;96685.81;;;12.66
19102;BMP280;9683;49.028;12.064;2023-03-23T04:25:15;96698.06;;;12.67
19102;BMP280;9683;49.028;12.064;2023-03-23T04:27:43;96683.69;;;12.68
19102;BMP280;9683;49.028;12.064;2023-03-23T04:30:12;96675.91;;;12.67
19102;BMP280;9683;49.028;12.064;2023-03-23T04:32:40;96670.34;;;12.68
19102;BMP280;9683;49.028;12.064;2023-03-23T04:35:10;96680.47;;;12.66
19102;BMP280;9683;49.028;12.064;2023-03-23T04:37:38;96686.28;;;12.63
19102;BMP280;9683;49.028;12.064;2023-03-23T04:40:07;96677.47;;;12.63
19102;BMP280;9683;49.028;12.064;2023-03-23T04:42:37;96670.28;;;12.63
19102;BMP280;9683;49.028;12.064;2023-03-23T04:45:06;96670.53;;;12.62
19102;BMP280;9683;49.028;12.064;2023-03-23T04:47:34;96665.19;;;12.62
19102;BMP280;9683;49.028;12.064;2023-03-23T04:50:08;96664.63;;;12.60
19102;BMP280;9683;49.028;12.064;2023-03-23T04:52:37;96671.84;;;12.59
19102;BMP280;9683;49.028;12.064;2023-03-23T04:55:07;96668.13;;;12.60
19102;BMP280;9683;49.028;12.064;2023-03-23T04:57:34;96666.50;;;12.59
19102;BMP280;9683;49.028;12.064;2023-03-23T05:00:02;96685.97;;;12.60
19102;BMP280;9683;49.028;12.064;2023-03-23T05:02:34;96687.84;;;12.59
19102;BMP280;9683;49.028;12.064;2023-03-23T05:05:00;96675.06;;;12.61
19102;BMP280;9683;49.028;12.064;2023-03-23T05:07:28;96674.03;;;12.62
19102;BMP280;9683;49.028;12.064;2023-03-23T05:09:55;96670.78;;;12.60
19102;BMP280;9683;49.028;12.064;2023-03-23T05:12:22;96664.09;;;12.58
19102;BMP280;9683;49.028;12.064;2023-03-23T05:14:49;96674.78;;;12.58
19102;BMP280;9683;49.028;12.064;2023-03-23T05:17:16;96683.81;;;12.57
19102;BMP280;9683;49.028;12.064;2023-03-23T05:19:43;96674.78;;;12.58
19102;BMP280;9683;49.028;12.064;2023-03-23T05:22:13;96688.09;;;12.58
19102;BMP280;9683;49.028;12.064;2023-03-23T05:24:41;96688.09;;;12.58
19102;BMP280;9683;49.028;12.064;2023-03-23T05:27:07;96682.19;;;12.56
19102;BMP280;9683;49.028;12.064;2023-03-23T05:29:34;96684.88;;;12.56
19102;BMP280;9683;49.028;12.064;2023-03-23T05:32:01;96682.19;;;12.56
19102;BMP280;9683;49.028;12.064;2023-03-23T05:34:29;96678.19;;;12.53
19102;BMP280;9683;49.028;12.064;2023-03-23T05:36:57;96682.94;;;12.51
19102;BMP280;9683;49.028;12.064;2023-03-23T05:39:26;96675.75;;;12.52
19102;BMP280;9683;49.028;12.064;2023-03-23T05:41:55;96679.22;;;12.52
19102;BMP280;9683;49.028;12.064;2023-03-23T05:44:22;96673.09;;;12.52
19102;BMP280;9683;49.028;12.064;2023-03-23T05:46:49;96675.50;;;12.53
19102;BMP280;9683;49.028;12.064;2023-03-23T05:49:16;96669.91;;;12.55
19102;BMP280;9683;49.028;12.064;2023-03-23T05:51:42;96672.56;;;12.55
19102;BMP280;9683;49.028;12.064;2023-03-23T05:54:09;96680.59;;;12.55
19102;BMP280;9683;49.028;12.064;2023-03-23T05:56:36;96684.56;;;12.52
19102;BMP280;9683;49.028;12.064;2023-03-23T05:59:04;96673.66;;;12.54
19102;BMP280;9683;49.028;12.064;2023-03-23T06:01:31;96672.03;;;12.53
19102;BMP280;9683;49.028;12.064;2023-03-23T06:03:58;96675.50;;;12.53
19102;BMP280;9683;49.028;12.064;2023-03-23T06:06:25;96669.09;;;12.54
19102;BMP280;9683;49.028;12.064;2023-03-23T06:08:51;96671.53;;;12.56
19102;BMP280;9683;49.028;12.064;2023-03-23T06:11:18;96668.63;;;12.57
19102;BMP280;9683;49.028;12.064;2023-03-23T06:13:45;96669.97;;;12.60
19102;BMP280;9683;49.028;12.064;2023-03-23T06:16:13;96667.31;;;12.60
19102;BMP280;9683;49.028;12.064;2023-03-23T06:18:40;96667.31;;;12.60
19102;BMP280;9683;49.028;12.064;2023-03-23T06:21:08;96667.38;;;12.65
19102;BMP280;9683;49.028;12.064;2023-03-23T06:23:34;96670.03;;;12.65
19102;BMP280;9683;49.028;12.064;2023-03-23T06:26:04;96666.03;;;12.67
19102;BMP280;9683;49.028;12.064;2023-03-23T06:28:31;96665.56;;;12.70
19102;BMP280;9683;49.028;12.064;2023-03-23T06:30:59;96664.50;;;12.71
19102;BMP280;9683;49.028;12.064;2023-03-23T06:33:28;96672.56;;;12.76
19102;BMP280;9683;49.028;12.064;2023-03-23T06:35:54;96666.16;;;12.77
19102;BMP280;9683;49.028;12.064;2023-03-23T06:38:21;96657.91;;;12.79
19102;BMP280;9683;49.028;12.064;2023-03-23T06:40:47;96671.81;;;12.81
19102;BMP280;9683;49.028;12.064;2023-03-23T06:43:14;96654.50;;;12.83
19102;BMP280;9683;49.028;12.064;2023-03-23T06:45:41;96669.44;;;12.84
19102;BMP280;9683;49.028;12.064;2023-03-23T06:48:07;96644.34;;;12.85
19102;BMP280;9683;49.028;12.064;2023-03-23T06:50:35;96657.19;;;12.88
19102;BMP280;9683;49.028;12.064;2023-03-23T06:53:02;96659.63;;;12.90
19102;BMP280;9683;49.028;12.064;2023-03-23T06:55:28;96666.88;;;12.95
19102;BMP280;9683;49.028;12.064;2023-03-23T06:57:56;96661.28;;;12.96
19102;BMP280;9683;49.028;12.064;2023-03-23T07:00:24;96664.25;;;13.00
19102;BMP280;9683;49.028;12.064;2023-03-23T07:02:51;96665.34;;;13.04
19102;BMP280;9683;49.028;12.064;2023-03-23T07:05:18;96666.47;;;13.08
19102;BMP280;9683;49.028;12.064;2023-03-23T07:07:46;96663.31;;;13.11
19102;BMP280;9683;49.028;12.064;2023-03-23T07:10:12;96660.41;;;13.12
19102;BMP280;9683;49.028;12.064;2023-03-23T07:12:39;96662.56;;;13.15
19102;BMP280;9683;49.028;12.064;2023-03-23T07:15:07;96663.09;;;13.17
19102;BMP280;9683;49.028;12.064;2023-03-23T07:17:36;96661.78;;;13.20
19102;BMP280;9683;49.028;12.064;2023-03-23T07:20:04;96666.91;;;13.21
19102;BMP280;9683;49.028;12.064;2023-03-23T07:22:31;96665.56;;;13.24
19102;BMP280;9683;49.028;12.064;2023-03-23T07:24:59;96678.97;;;13.29
19102;BMP280;9683;49.028;12.064;2023-03-23T07:27:25;96668.00;;;13.30
19102;BMP280;9683;49.028;12.064;2023-03-23T07:29:52;96670.19;;;13.34
19102;BMP280;9683;49.028;12.064;2023-03-23T07:32:19;96675.03;;;13.37
19102;BMP280;9683;49.028;12.064;2023-03-23T07:34:45;96676.38;;;13.39
19102;BMP280;9683;49.028;12.064;2023-03-23T07:37:12;96678.56;;;13.42
19102;BMP280;9683;49.028;12.064;2023-03-23T07:39:39;96680.72;;;13.45
19102;BMP280;9683;49.028;12.064;2023-03-23T07:42:07;96678.84;;;13.46
19102;BMP280;9683;49.028;12.064;2023-03-23T07:44:34;96677.22;;;13.45
19102;BMP280;9683;49.028;12.064;2023-03-23T07:47:01;96675.91;;;13.47
19102;BMP280;9683;49.028;12.064;2023-03-23T07:49:28;96681.56;;;13.51
19102;BMP280;9683;49.028;12.064;2023-03-23T07:51:56;96674.88;;;13.53
19102;BMP280;9683;49.028;12.064;2023-03-23T07:54:22;96678.41;;;13.59
19102;BMP280;9683;49.028;12.064;2023-03-23T07:56:49;96677.66;;;13.63
19102;BMP280;9683;49.028;12.064;2023-03-23T07:59:17;96683.00;;;13.68
19102;BMP280;9683;49.028;12.064;2023-03-23T08:01:44;96677.94;;;13.67
19102;BMP280;9683;49.028;12.064;2023-03-23T08:04:10;96695.03;;;13.66
19102;BMP280;9683;49.028;12.064;2023-03-23T08:06:38;96693.97;;;13.67
19102;BMP280;9683;49.028;12.064;2023-03-23T08:09:05;96693.69;;;13.68
19102;BMP280;9683;49.028;12.064;2023-03-23T08:11:33;96702.28;;;13.70
19102;BMP280;9683;49.028;12.064;2023-03-23T08:14:00;96696.19;;;13.75
19102;BMP280;9683;49.028;12.064;2023-03-23T08:16:29;96706.63;;;13.82
19102;BMP280;9683;49.028;12.064;2023-03-23T08:18:55;96698.09;;;13.85
19102;BMP280;9683;49.028;12.064;2023-03-23T08:21:23;96694.91;;;13.88
19102;BMP280;9683;49.028;12.064;2023-03-23T08:23:51;96710.44;;;13.91
19102;BMP280;9683;49.028;12.064;2023-03-23T08:26:19;96708.06;;;13.94
19102;BMP280;9683;49.028;12.064;2023-03-23T08:28:46;96705.94;;;13.96
19102;BMP280;9683;49.028;12.064;2023-03-23T08:31:14;96712.09;;;14.02
19102;BMP280;9683;49.028;12.064;2023-03-23T08:33:43;96713.22;;;14.06
19102;BMP280;9683;49.028;12.064;2023-03-23T08:36:10;96710.03;;;14.09
19102;BMP280;9683;49.028;12.064;2023-03-23T08:38:37;96704.16;;;14.12
19102;BMP280;9683;49.028;12.064;2023-03-23T08:41:05;96700.19;;;14.19
19102;BMP280;9683;49.028;12.064;2023-03-23T08:43:33;96709.84;;;14.26
19102;BMP280;9683;49.028;12.064;2023-03-23T08:46:00;96704.00;;;14.34
19102;BMP280;9683;49.028;12.064;2023-03-23T08:48:32;96707.28;;;14.41
19102;BMP280;9683;49.028;12.064;2023-03-23T08:51:02;96711.88;;;14.50
19102;BMP280;9683;49.028;12.064;2023-03-23T08:53:29;96713.50;;;14.56
19102;BMP280;9683;49.028;12.064;2023-03-23T08:55:57;96714.59;;;14.65
19102;BMP280;9683;49.028;12.064;2023-03-23T08:58:28;96718.66;;;14.73
19102;BMP280;9683;49.028;12.064;2023-03-23T09:00:55;96709.81;;;14.78
19102;BMP280;9683;49.028;12.064;2023-03-23T09:03:21;96719.75;;;14.82
19102;BMP280;9683;49.028;12.064;2023-03-23T09:05:48;96720.34;;;14.89
19102;BMP280;9683;49.028;12.064;2023-03-23T09:08:16;96718.47;;;14.95
19102;BMP280;9683;49.028;12.064;2023-03-23T09:10:43;96724.09;;;14.98
19102;BMP280;9683;49.028;12.064;2023-03-23T09:13:09;96724.09;;;15.03
19102;BMP280;9683;49.028;12.064;2023-03-23T09:15:36;96728.69;;;15.08
19102;BMP280;9683;49.028;12.064;2023-03-23T09:18:03;96734.59;;;15.15
19102;BMP280;9683;49.028;12.064;2023-03-23T09:20:30;96722.28;;;15.19
19102;BMP280;9683;49.028;12.064;2023-03-23T09:22:57;96726.03;;;15.23
19102;BMP280;9683;49.028;12.064;2023-03-23T09:25:26;96724.16;;;15.29
19102;BMP280;9683;49.028;12.064;2023-03-23T09:27:55;96731.41;;;15.33
19102;BMP280;9683;49.028;12.064;2023-03-23T09:30:23;96727.13;;;15.37
19102;BMP280;9683;49.028;12.064;2023-03-23T09:32:51;96726.59;;;15.40
19102;BMP280;9683;49.028;12.064;2023-03-23T09:35:19;96715.34;;;15.43
19102;BMP280;9683;49.028;12.064;2023-03-23T09:37:48;96705.69;;;15.47
19102;BMP280;9683;49.028;12.064;2023-03-23T09:40:17;96705.72;;;15.52
19102;BMP280;9683;49.028;12.064;2023-03-23T09:43:06;96708.94;;;15.59
19102;BMP280;9683;49.028;12.064;2023-03-23T09:45:46;96718.56;;;15.66
19102;BMP280;9683;49.028;12.064;2023-03-23T09:48:39;96720.19;;;15.72
19102;BMP280;9683;49.028;12.064;2023-03-23T09:51:12;96719.41;;;15.76
19102;BMP280;9683;49.028;12.064;2023-03-23T09:53:45;96723.41;;;15.79
19102;BMP280;9683;49.028;12.064;2023-03-23T09:56:15;96723.16;;;15.85
19102;BMP280;9683;49.028;12.064;2023-03-23T09:58:47;96721.53;;;15.89
19102;BMP280;9683;49.028;12.064;2023-03-23T10:01:21;96726.34;;;15.92
19102;BMP280;9683;49.028;12.064;2023-03-23T10:03:52;96726.63;;;15.96
19102;BMP280;9683;49.028;12.064;2023-03-23T10:06:21;96728.22;;;15.97
19102;BMP280;9683;49.028;12.064;2023-03-23T10:08:50;96728.75;;;16.04
19102;BMP280;9683;49.028;12.064;2023-03-23T10:11:24;96722.88;;;16.07
19102;BMP280;9683;49.028;12.064;2023-03-23T10:14:07;96724.44;;;16.13
19102;BMP280;9683;49.028;12.064;2023-03-23T10:16:38;96719.63;;;16.15
19102;BMP280;9683;49.028;12.064;2023-03-23T10:19:11;96727.66;;;16.20
19102;BMP280;9683;49.028;12.064;2023-03-23T10:21:42;96725.50;;;16.22
19102;BMP280;9683;49.028;12.064;2023-03-23T10:24:15;96723.63;;;16.28
19102;BMP280;9683;49.028;12.064;2023-03-23T10:26:48;96716.09;;;16.30
19102;BMP280;9683;49.028;12.064;2023-03-23T10:29:21;96720.63;;;16.34
19102;BMP280;9683;49.028;12.064;2023-03-23T10:31:52;96719.81;;;16.39
19102;BMP280;9683;49.028;12.064;2023-03-23T10:34:24;96720.63;;;16.44
19102;BMP280;9683;49.028;12.064;2023-03-23T10:37:02;96728.38;;;16.51
19102;BMP280;9683;49.028;12.064;2023-03-23T10:39:37;96723.56;;;16.58
19102;BMP280;9683;49.028;12.064;2023-03-23T10:42:05;96717.63;;;16.61
19102;BMP280;9683;49.028;12.064;2023-03-23T10:44:34;96713.56;;;16.69
19102;BMP280;9683;49.028;12.064;2023-03-23T10:47:03;96710.56;;;16.75
19102;BMP280;9683;49.028;12.064;2023-03-23T10:49:34;96714.59;;;16.83
19102;BMP280;9683;49.028;12.064;2023-03-23T10:52:09;96708.91;;;16.89
19102;BMP280;9683;49.028;12.064;2023-03-23T10:54:51;96707.81;;;16.95
19102;BMP280;9683;49.028;12.064;2023-03-23T10:57:23;96708.81;;;17.05
19102;BMP280;9683;49.028;12.064;2023-03-23T10:59:58;96711.72;;;17.13
19102;BMP280;9683;49.028;12.064;2023-03-23T11:02:25;96716.81;;;17.20
19102;BMP280;9683;49.028;12.064;2023-03-23T11:04:59;96713.75;;;17.31
19102;BMP280;9683;49.028;12.064;2023-03-23T11:07:29;96703.78;;;17.37
19102;BMP280;9683;49.028;12.064;2023-03-23T11:09:59;96697.25;;;17.43
19102;BMP280;9683;49.028;12.064;2023-03-23T11:12:33;96702.34;;;17.50
19102;BMP280;9683;49.028;12.064;2023-03-23T11:15:20;96696.13;;;17.54
19102;BMP280;9683;49.028;12.064;2023-03-23T11:17:55;96691.78;;;17.63
19102;BMP280;9683;49.028;12.064;2023-03-23T11:20:24;96696.56;;;17.71
19102;BMP280;9683;49.028;12.064;2023-03-23T11:22:52;96706.72;;;17.79
19102;BMP280;9683;49.028;12.064;2023-03-23T11:25:18;96702.31;;;17.89
19102;BMP280;9683;49.028;12.064;2023-03-23T11:27:46;96700.59;;;17.98
19102;BMP280;9683;49.028;12.064;2023-03-23T11:30:20;96709.97;;;18.05
19102;BMP280;9683;49.028;12.064;2023-03-23T11:32:48;96709.09;;;18.10
19102;BMP280;9683;49.028;12.064;2023-03-23T11:35:17;96727.38;;;18.18
19102;BMP280;9683;49.028;12.064;2023-03-23T11:37:47;96701.97;;;18.24
19102;BMP280;9683;49.028;12.064;2023-03-23T11:40:16;96708.09;;;18.29
19102;BMP280;9683;49.028;12.064;2023-03-23T11:42:45;96708.91;;;18.30
19102;BMP280;9683;49.028;12.064;2023-03-23T11:45:19;96699.66;;;18.36
19102;BMP280;9683;49.028;12.064;2023-03-23T11:47:56;96708.78;;;18.40
19102;BMP280;9683;49.028;12.064;2023-03-23T11:50:27;96713.63;;;18.43
19102;BMP280;9683;49.028;12.064;2023-03-23T11:53:00;96692.50;;;18.50
19102;BMP280;9683;49.028;12.064;2023-03-23T11:55:33;96691.16;;;18.53
19102;BMP280;9683;49.028;12.064;2023-03-23T11:58:09;96699.47;;;18.56
19102;BMP280;9683;49.028;12.064;2023-03-23T12:00:39;96723.44;;;18.58
19102;BMP280;9683;49.028;12.064;2023-03-23T12:03:30;96697.31;;;18.58
19102;BMP280;9683;49.028;12.064;2023-03-23T12:06:01;96707.50;;;18.61
19102;BMP280;9683;49.028;12.064;2023-03-23T12:08:43;96702.06;;;18.66
19102;BMP280;9683;49.028;12.064;2023-03-23T12:11:21;96700.97;;;18.67
19102;BMP280;9683;49.028;12.064;2023-03-23T12:13:59;96700.66;;;18.69
19102;BMP280;9683;49.028;12.064;2023-03-23T12:16:39;96705.56;;;18.67
19102;BMP280;9683;49.028;12.064;2023-03-23T12:19:14;96706.06;;;18.69
19102;BMP280;9683;49.028;12.064;2023-03-23T12:21:48;96717.66;;;18.69
19102;BMP280;9683;49.028;12.064;2023-03-23T12:24:34;96740.78;;;18.75
19102;BMP280;9683;49.028;12.064;2023-03-23T12:27:07;96711.97;;;18.71
19102;BMP280;9683;49.028;12.064;2023-03-23T12:29:46;96722.59;;;18.62
19102;BMP280;9683;49.028;12.064;2023-03-23T12:32:30;96698.97;;;18.54
19102;BMP280;9683;49.028;12.064;2023-03-23T12:35:05;96701.09;;;18.57
19102;BMP280;9683;49.028;12.064;2023-03-23T12:37:45;96708.34;;;18.57
19102;BMP280;9683;49.028;12.064;2023-03-23T12:40:33;96705.38;;;18.58
19102;BMP280;9683;49.028;12.064;2023-03-23T12:43:05;96713.75;;;18.57
19102;BMP280;9683;49.028;12.064;2023-03-23T12:45:50;96712.72;;;18.53
19102;BMP280;9683;49.028;12.064;2023-03-23T12:48:23;96710.34;;;18.46
19102;BMP280;9683;49.028;12.064;2023-03-23T12:51:10;96705.28;;;18.40
19102;BMP280;9683;49.028;12.064;2023-03-23T12:53:44;96711.53;;;18.35
19102;BMP280;9683;49.028;12.064;2023-03-23T12:56:16;96700.25;;;18.33
19102;BMP280;9683;49.028;12.064;2023-03-23T12:58:45;96698.63;;;18.32
19102;BMP280;9683;49.028;12.064;2023-03-23T13:01:15;96711.84;;;18.33
19102;BMP280;9683;49.028;12.064;2023-03-23T13:03:51;96694.59;;;18.35
19102;BMP280;9683;49.028;12.064;2023-03-23T13:06:22;96699.66;;;18.36
19102;BMP280;9683;49.028;12.064;2023-03-23T13:08:54;96699.41;;;18.38
19102;BMP280;9683;49.028;12.064;2023-03-23T13:11:27;96704.22;;;18.41
19102;BMP280;9683;49.028;12.064;2023-03-23T13:14:00;96698.81;;;18.41
19102;BMP280;9683;49.028;12.064;2023-03-23T13:16:34;96693.16;;;18.42
19102;BMP280;9683;49.028;12.064;2023-03-23T13:19:10;96688.03;;;18.41
19102;BMP280;9683;49.028;12.064;2023-03-23T13:21:42;96699.13;;;18.39
19102;BMP280;9683;49.028;12.064;2023-03-23T13:24:12;96694.81;;;18.38
19102;BMP280;9683;49.028;12.064;2023-03-23T13:26:41;96685.66;;;18.39
19102;BMP280;9683;49.028;12.064;2023-03-23T13:29:12;96689.06;;;18.45
19102;BMP280;9683;49.028;12.064;2023-03-23T13:31:41;96689.88;;;18.45
19102;BMP280;9683;49.028;12.064;2023-03-23T13:34:16;96683.09;;;18.48
19102;BMP280;9683;49.028;12.064;2023-03-23T13:36:51;96687.19;;;18.45
19102;BMP280;9683;49.028;12.064;2023-03-23T13:39:20;96686.91;;;18.47
19102;BMP280;9683;49.028;12.064;2023-03-23T13:42:05;96673.66;;;18.50
19102;BMP280;9683;49.028;12.064;2023-03-23T13:44:55;96675.00;;;18.53
19102;BMP280;9683;49.028;12.064;2023-03-23T13:47:27;96678.22;;;18.55
19102;BMP280;9683;49.028;12.064;2023-03-23T13:49:59;96684.91;;;18.57
19102;BMP280;9683;49.028;12.064;2023-03-23T13:52:38;96682.44;;;18.61
19102;BMP280;9683;49.028;12.064;2023-03-23T13:55:17;96677.56;;;18.63
19102;BMP280;9683;49.028;12.064;2023-03-23T13:57:50;96672.69;;;18.65
19102;BMP280;9683;49.028;12.064;2023-03-23T14:00:34;96674.28;;;18.66
19102;BMP280;9683;49.028;12.064;2023-03-23T14:03:03;96675.63;;;18.68
19102;BMP280;9683;49.028;12.064;2023-03-23T14:05:34;96673.44;;;18.70
19102;BMP280;9683;49.028;12.064;2023-03-23T14:08:09;96669.00;;;18.80
19102;BMP280;9683;49.028;12.064;2023-03-23T14:10:39;96670.81;;;18.84
19102;BMP280;9683;49.028;12.064;2023-03-23T14:13:14;96669.16;;;18.88
19102;BMP280;9683;49.028;12.064;2023-03-23T14:15:44;96682.63;;;18.88
19102;BMP280;9683;49.028;12.064;2023-03-23T14:18:15;96675.03;;;18.90
19102;BMP280;9683;49.028;12.064;2023-03-23T14:20:46;96669.09;;;18.93
19102;BMP280;9683;49.028;12.064;2023-03-23T14:23:17;96667.81;;;18.86
19102;BMP280;9683;49.028;12.064;2023-03-23T14:25:44;96672.72;;;18.84
19102;BMP280;9683;49.028;12.064;2023-03-23T14:28:18;96671.09;;;18.83
19102;BMP280;9683;49.028;12.064;2023-03-23T14:30:46;96669.50;;;18.82